Terminal Aerodrome Forecast
Issued by NWS

Home | Current Version | Previous Version | Graphics & Text | Print | Product List | Glossary On
Versions: 1 2 3 4 5 6 7 8 9 10 11 12 13 14 15 16 17
000
FTUS43 KABR 181500 AAA
TAFATY
TAF AMD
KATY 181513Z 1815/1912 27012G18KT P6SM SCT100
     FM181900 30012G22KT P6SM VCTS BKN035CB
     FM182300 30010G18KT P6SM SCT040
     FM190200 32010KT P6SM SKC=

USA.gov is the U.S. government's official web portal to all federal, state and local government web resources and services.